Time;durP1;ratioP1;P1;durP2;ratioP2;P2;SDS_P1;SDS_P2;PMS_P1;PMS_P2;Temp;Humidity;BMP_temperature;BMP_pressure;BME280_temperature;BME280_humidity;BME280_pressure;Samples;Min_cycle;Max_cycle;Signal;HPM_P1;HPM_P2
2023/08/08 00:02:04;;;;;;;0.10;0.10;;;;;;;;;;5121658;28;20745;-59
2023/08/08 00:04:29;;;;;;;0.13;0.13;;;;;;;;;;5130691;27;20043;-59
2023/08/08 00:06:55;;;;;;;0.13;0.13;;;;;;;;;;5122983;28;20074;-59
2023/08/08 00:09:20;;;;;;;0.20;0.20;;;;;;;;;;5123103;28;20039;-59
2023/08/08 00:11:46;;;;;;;0.20;0.20;;;;;;;;;;5112976;28;20415;-59
2023/08/08 00:14:11;;;;;;;0.15;0.15;;;;;;;;;;5123707;28;20412;-59
2023/08/08 00:16:37;;;;;;;0.20;0.20;;;;;;;;;;5123154;28;20187;-59
2023/08/08 00:19:03;;;;;;;0.10;0.10;;;;;;;;;;5124045;28;20058;-59
2023/08/08 00:21:28;;;;;;;0.10;0.10;;;;;;;;;;5122309;28;20054;-59
2023/08/08 00:23:54;;;;;;;0.20;0.20;;;;;;;;;;5123542;28;20054;-59
2023/08/08 00:26:19;;;;;;;0.20;0.20;;;;;;;;;;5123988;28;20096;-59
2023/08/08 00:28:45;;;;;;;0.10;0.10;;;;;;;;;;5123532;28;20047;-59
2023/08/08 00:31:10;;;;;;;0.20;0.20;;;;;;;;;;5122551;27;20397;-58
2023/08/08 00:33:36;;;;;;;0.20;0.20;;;;;;;;;;5123034;28;20419;-59
2023/08/08 00:36:01;;;;;;;0.10;0.10;;;;;;;;;;5122349;28;20102;-59
2023/08/08 00:38:27;;;;;;;0.20;0.20;;;;;;;;;;5122369;28;20624;-59
2023/08/08 00:40:53;;;;;;;0.15;0.15;;;;;;;;;;5121764;28;20055;-59
2023/08/08 00:43:18;;;;;;;0.30;0.30;;;;;;;;;;5122603;28;20138;-59
2023/08/08 00:45:44;;;;;;;0.20;0.20;;;;;;;;;;5122860;28;20050;-59
2023/08/08 00:48:10;;;;;;;0.20;0.20;;;;;;;;;;5122238;28;20489;-59
2023/08/08 00:50:36;;;;;;;0.20;0.20;;;;;;;;;;5122148;28;20426;-59
2023/08/08 00:53:02;;;;;;;0.10;0.10;;;;;;;;;;5122888;28;20067;-59
2023/08/08 00:55:28;;;;;;;0.10;0.10;;;;;;;;;;5122439;28;20083;-59
2023/08/08 00:57:54;;;;;;;0.20;0.20;;;;;;;;;;5121079;28;20045;-59
2023/08/08 01:00:19;;;;;;;0.17;0.17;;;;;;;;;;5113896;27;20047;-59
2023/08/08 01:02:45;;;;;;;0.10;0.10;;;;;;;;;;5108011;28;20039;-58
2023/08/08 01:05:11;;;;;;;0.10;0.10;;;;;;;;;;5122568;27;20047;-59
2023/08/08 01:07:57;;;;;;;0.15;0.15;;;;;;;;;;5126052;28;20063;-59
2023/08/08 01:10:26;;;;;;;0.10;0.10;;;;;;;;;;5111834;28;20051;-59
2023/08/08 01:12:53;;;;;;;0.10;0.10;;;;;;;;;;5126178;28;20189;-59
2023/08/08 01:15:19;;;;;;;0.20;0.20;;;;;;;;;;5126337;28;20043;-59
2023/08/08 01:17:45;;;;;;;0.10;0.10;;;;;;;;;;5126687;28;20073;-59
2023/08/08 01:20:14;;;;;;;0.20;0.20;;;;;;;;;;5125885;28;20479;-59
2023/08/08 01:22:43;;;;;;;0.10;0.10;;;;;;;;;;5125902;28;20051;-59
2023/08/08 01:25:09;;;;;;;0.10;0.10;;;;;;;;;;5126578;28;20043;-58
2023/08/08 01:27:35;;;;;;;0.20;0.20;;;;;;;;;;5126550;28;20099;-59
2023/08/08 01:30:00;;;;;;;0.10;0.10;;;;;;;;;;5123488;27;20055;-59
2023/08/08 01:32:26;;;;;;;0.20;0.20;;;;;;;;;;5105769;28;20193;-59
2023/08/08 01:34:52;;;;;;;0.20;0.20;;;;;;;;;;5110057;28;20099;-59
2023/08/08 01:37:19;;;;;;;0.10;0.10;;;;;;;;;;5126492;28;20090;-59
2023/08/08 01:39:46;;;;;;;0.10;0.10;;;;;;;;;;5124908;28;20047;-59
2023/08/08 01:42:12;;;;;;;0.10;0.10;;;;;;;;;;5123965;28;20130;-59
2023/08/08 01:44:39;;;;;;;0.20;0.20;;;;;;;;;;5127272;27;20100;-59
2023/08/08 01:47:05;;;;;;;0.10;0.10;;;;;;;;;;5127291;27;20257;-59
2023/08/08 01:49:31;;;;;;;0.20;0.20;;;;;;;;;;5126627;27;20307;-59
2023/08/08 01:51:56;;;;;;;0.20;0.20;;;;;;;;;;5107842;28;20486;-59
2023/08/08 01:54:22;;;;;;;0.10;0.10;;;;;;;;;;5106622;28;20559;-59
2023/08/08 01:56:48;;;;;;;0.20;0.20;;;;;;;;;;5106190;28;20058;-59
2023/08/08 01:59:13;;;;;;;0.13;0.13;;;;;;;;;;5114208;27;20146;-59
2023/08/08 02:01:41;;;;;;;0.10;0.10;;;;;;;;;;5125670;28;20146;-59
2023/08/08 02:04:07;;;;;;;0.10;0.10;;;;;;;;;;5115674;28;20570;-59
2023/08/08 02:06:32;;;;;;;0.20;0.20;;;;;;;;;;5126007;28;20076;-59
2023/08/08 02:08:58;;;;;;;0.20;0.20;;;;;;;;;;5126229;28;20706;-59
2023/08/08 02:11:23;;;;;;;0.10;0.10;;;;;;;;;;5125311;28;20090;-59
2023/08/08 02:13:49;;;;;;;0.10;0.10;;;;;;;;;;5125827;28;20093;-59
2023/08/08 02:16:15;;;;;;;0.13;0.13;;;;;;;;;;5126167;27;20039;-60
2023/08/08 02:18:41;;;;;;;0.20;0.20;;;;;;;;;;5124941;28;20039;-59
2023/08/08 02:21:07;;;;;;;0.20;0.20;;;;;;;;;;5125144;28;20078;-59
2023/08/08 02:23:33;;;;;;;0.10;0.10;;;;;;;;;;5125376;28;20043;-59
2023/08/08 02:25:58;;;;;;;0.20;0.20;;;;;;;;;;5125701;27;20134;-59
2023/08/08 02:28:24;;;;;;;0.20;0.20;;;;;;;;;;5125129;28;20043;-59
2023/08/08 02:30:49;;;;;;;0.10;0.10;;;;;;;;;;5125539;28;20047;-59
2023/08/08 02:33:15;;;;;;;0.20;0.20;;;;;;;;;;5128012;28;20047;-59
2023/08/08 02:35:41;;;;;;;0.15;0.15;;;;;;;;;;5127344;28;20130;-59
2023/08/08 02:38:06;;;;;;;0.20;0.20;;;;;;;;;;5127232;28;20144;-59
2023/08/08 02:40:33;;;;;;;0.20;0.20;;;;;;;;;;5125194;28;20108;-59
2023/08/08 02:42:59;;;;;;;0.15;0.15;;;;;;;;;;5126189;28;20047;-59
2023/08/08 02:45:24;;;;;;;0.20;0.20;;;;;;;;;;5127208;28;20049;-59
2023/08/08 02:47:50;;;;;;;0.20;0.20;;;;;;;;;;5127022;28;20111;-59
2023/08/08 02:50:15;;;;;;;0.10;0.10;;;;;;;;;;5126165;28;20058;-59
2023/08/08 02:52:41;;;;;;;0.10;0.10;;;;;;;;;;5127459;28;20050;-59
2023/08/08 02:55:07;;;;;;;0.20;0.20;;;;;;;;;;5127310;28;20148;-59
2023/08/08 02:57:32;;;;;;;0.20;0.20;;;;;;;;;;5127007;28;20075;-59
2023/08/08 02:59:58;;;;;;;0.10;0.10;;;;;;;;;;5118460;27;20670;-51
2023/08/08 03:02:24;;;;;;;0.10;0.10;;;;;;;;;;5124360;27;20043;-49
2023/08/08 03:04:49;;;;;;;0.10;0.10;;;;;;;;;;5126434;27;20100;-49
2023/08/08 03:07:15;;;;;;;0.13;0.13;;;;;;;;;;5124719;28;20350;-51
2023/08/08 03:09:40;;;;;;;0.20;0.20;;;;;;;;;;5126576;28;20475;-50
2023/08/08 03:12:06;;;;;;;0.20;0.20;;;;;;;;;;5105479;28;20116;-49
2023/08/08 03:14:33;;;;;;;0.20;0.20;;;;;;;;;;5123881;28;20163;-49
2023/08/08 03:16:59;;;;;;;0.20;0.20;;;;;;;;;;5127027;28;20039;-50
2023/08/08 03:19:24;;;;;;;0.20;0.20;;;;;;;;;;5125656;28;20054;-49
2023/08/08 03:21:50;;;;;;;0.10;0.10;;;;;;;;;;5125511;28;20134;-49
2023/08/08 03:24:15;;;;;;;0.20;0.20;;;;;;;;;;5126132;28;20039;-50
2023/08/08 03:26:41;;;;;;;0.10;0.10;;;;;;;;;;5125768;28;20051;-50
2023/08/08 03:29:09;;;;;;;0.20;0.20;;;;;;;;;;5124431;27;20088;-50
2023/08/08 03:31:35;;;;;;;0.30;0.30;;;;;;;;;;5120009;27;20091;-49
2023/08/08 03:34:00;;;;;;;0.20;0.20;;;;;;;;;;5126345;28;20050;-52
2023/08/08 03:36:26;;;;;;;0.20;0.20;;;;;;;;;;5126003;28;20051;-49
2023/08/08 03:38:52;;;;;;;0.20;0.20;;;;;;;;;;5125627;28;20054;-49
2023/08/08 03:41:17;;;;;;;0.20;0.20;;;;;;;;;;5123766;28;20381;-53
2023/08/08 03:43:43;;;;;;;0.20;0.20;;;;;;;;;;5125806;28;20096;-53
2023/08/08 03:46:08;;;;;;;0.20;0.20;;;;;;;;;;5125612;28;20043;-49
2023/08/08 03:48:34;;;;;;;0.20;0.20;;;;;;;;;;5125187;28;20139;-51
2023/08/08 03:51:00;;;;;;;0.10;0.10;;;;;;;;;;5125502;28;20359;-50
2023/08/08 03:53:25;;;;;;;0.10;0.10;;;;;;;;;;5126299;28;20409;-49
2023/08/08 03:55:51;;;;;;;0.20;0.20;;;;;;;;;;5126377;28;20082;-48
2023/08/08 03:58:16;;;;;;;0.10;0.10;;;;;;;;;;5125911;28;20134;-50
2023/08/08 04:00:46;;;;;;;0.10;0.10;;;;;;;;;;5132822;27;20047;-50
2023/08/08 04:03:15;;;;;;;0.17;0.17;;;;;;;;;;5124777;28;20071;-50
2023/08/08 04:05:41;;;;;;;0.10;0.10;;;;;;;;;;5125841;27;20047;-50
2023/08/08 04:08:07;;;;;;;0.20;0.20;;;;;;;;;;5124815;27;20115;-49
2023/08/08 04:10:32;;;;;;;0.20;0.20;;;;;;;;;;5123100;27;20086;-49
2023/08/08 04:12:58;;;;;;;0.20;0.20;;;;;;;;;;5125179;28;20039;-49
2023/08/08 04:15:23;;;;;;;0.20;0.20;;;;;;;;;;5125608;28;20664;-49
2023/08/08 04:17:49;;;;;;;0.10;0.10;;;;;;;;;;5126456;28;20035;-51
2023/08/08 04:20:15;;;;;;;0.10;0.10;;;;;;;;;;5123338;28;20039;-50
2023/08/08 04:22:41;;;;;;;0.10;0.10;;;;;;;;;;5125981;27;20047;-50
2023/08/08 04:25:07;;;;;;;0.20;0.20;;;;;;;;;;5126173;28;20100;-48
2023/08/08 04:27:33;;;;;;;0.15;0.15;;;;;;;;;;5125322;28;20266;-49
2023/08/08 04:29:58;;;;;;;0.20;0.20;;;;;;;;;;5124990;28;20406;-50
2023/08/08 04:32:24;;;;;;;0.20;0.20;;;;;;;;;;5124987;28;20077;-49
2023/08/08 04:34:50;;;;;;;0.20;0.20;;;;;;;;;;5125959;28;20646;-49
2023/08/08 04:37:15;;;;;;;0.20;0.20;;;;;;;;;;5105362;28;20047;-49
2023/08/08 04:39:41;;;;;;;0.20;0.20;;;;;;;;;;5106067;28;20043;-50
2023/08/08 04:42:06;;;;;;;0.10;0.10;;;;;;;;;;5126363;28;20047;-52
2023/08/08 04:44:32;;;;;;;0.20;0.20;;;;;;;;;;5127638;28;20076;-53
2023/08/08 04:46:57;;;;;;;0.10;0.10;;;;;;;;;;5128488;28;20054;-50
2023/08/08 04:49:23;;;;;;;0.20;0.20;;;;;;;;;;5128868;28;20073;-49
2023/08/08 04:51:48;;;;;;;0.20;0.20;;;;;;;;;;5117896;28;20107;-50
2023/08/08 04:54:14;;;;;;;0.20;0.20;;;;;;;;;;5126155;28;20072;-51
2023/08/08 04:56:39;;;;;;;0.20;0.20;;;;;;;;;;5127382;28;20051;-49
2023/08/08 04:59:05;;;;;;;0.20;0.20;;;;;;;;;;5123466;28;20043;-49
2023/08/08 05:01:30;;;;;;;0.20;0.20;;;;;;;;;;5124551;27;20568;-50
2023/08/08 05:03:56;;;;;;;0.10;0.10;;;;;;;;;;5137216;27;20047;-50
2023/08/08 05:06:22;;;;;;;0.20;0.20;;;;;;;;;;5127392;28;20376;-49
2023/08/08 05:08:48;;;;;;;0.20;0.20;;;;;;;;;;5127698;28;20051;-50
2023/08/08 05:11:14;;;;;;;0.20;0.20;;;;;;;;;;5127161;28;20688;-50
2023/08/08 05:13:40;;;;;;;0.10;0.10;;;;;;;;;;5128015;28;20058;-50
2023/08/08 05:16:06;;;;;;;0.22;0.22;;;;;;;;;;5127915;28;20130;-49
2023/08/08 05:18:31;;;;;;;0.20;0.20;;;;;;;;;;5127819;28;20047;-53
2023/08/08 05:20:57;;;;;;;0.20;0.20;;;;;;;;;;5126309;28;20088;-55
2023/08/08 05:23:22;;;;;;;0.20;0.20;;;;;;;;;;5127118;28;20050;-57
2023/08/08 05:25:48;;;;;;;0.17;0.17;;;;;;;;;;5127731;28;20047;-50
2023/08/08 05:28:13;;;;;;;0.20;0.20;;;;;;;;;;5125841;28;20051;-50
2023/08/08 05:30:39;;;;;;;0.10;0.10;;;;;;;;;;5121448;27;20519;-49
2023/08/08 05:33:05;;;;;;;0.20;0.20;;;;;;;;;;5124200;28;20411;-49
2023/08/08 05:35:30;;;;;;;0.20;0.20;;;;;;;;;;5127813;28;20076;-51
2023/08/08 05:37:56;;;;;;;0.20;0.20;;;;;;;;;;5126937;28;20050;-49
2023/08/08 05:40:21;;;;;;;0.20;0.20;;;;;;;;;;5127710;28;20100;-50
2023/08/08 05:42:47;;;;;;;0.15;0.15;;;;;;;;;;5123146;27;20111;-50
2023/08/08 05:45:12;;;;;;;0.20;0.20;;;;;;;;;;5124498;28;20460;-50
2023/08/08 05:47:38;;;;;;;0.20;0.20;;;;;;;;;;5120723;28;20432;-50
2023/08/08 05:50:04;;;;;;;0.10;0.10;;;;;;;;;;5124229;28;20051;-51
2023/08/08 05:52:30;;;;;;;0.20;0.20;;;;;;;;;;5120234;27;20119;-52
2023/08/08 05:54:55;;;;;;;0.20;0.20;;;;;;;;;;5124668;28;20139;-53
2023/08/08 05:57:21;;;;;;;0.20;0.20;;;;;;;;;;5122773;28;20039;-50
2023/08/08 05:59:47;;;;;;;0.20;0.20;;;;;;;;;;5129265;27;20539;-53
2023/08/08 06:02:12;;;;;;;0.10;0.10;;;;;;;;;;5125268;28;20051;-53
2023/08/08 06:04:38;;;;;;;0.10;0.10;;;;;;;;;;5127449;28;20062;-53
2023/08/08 06:07:04;;;;;;;0.10;0.10;;;;;;;;;;5126399;28;20043;-53
2023/08/08 06:09:34;;;;;;;0.10;0.10;;;;;;;;;;5125438;27;20047;-53
2023/08/08 06:11:59;;;;;;;0.10;0.10;;;;;;;;;;5120919;28;20413;-50
2023/08/08 06:14:25;;;;;;;0.10;0.10;;;;;;;;;;5122259;28;20043;-52
2023/08/08 06:16:51;;;;;;;0.30;0.30;;;;;;;;;;5119399;28;20243;-52
2023/08/08 06:19:16;;;;;;;0.10;0.10;;;;;;;;;;5116887;28;20043;-50
2023/08/08 06:21:42;;;;;;;0.15;0.15;;;;;;;;;;5120829;28;20058;-49
2023/08/08 06:24:07;;;;;;;0.10;0.10;;;;;;;;;;5120540;28;20051;-53
2023/08/08 06:26:33;;;;;;;0.30;0.30;;;;;;;;;;5112368;28;20058;-53
2023/08/08 06:28:59;;;;;;;0.10;0.10;;;;;;;;;;5120308;28;20070;-53
2023/08/08 06:31:24;;;;;;;0.20;0.20;;;;;;;;;;5116202;28;20070;-57
2023/08/08 06:33:50;;;;;;;0.20;0.20;;;;;;;;;;5116301;28;20687;-49
2023/08/08 06:36:16;;;;;;;0.10;0.10;;;;;;;;;;5118012;28;20043;-51
2023/08/08 06:38:42;;;;;;;0.20;0.20;;;;;;;;;;5120449;28;20411;-51
2023/08/08 06:41:08;;;;;;;0.20;0.20;;;;;;;;;;5107678;27;20052;-52
2023/08/08 06:43:33;;;;;;;0.20;0.20;;;;;;;;;;5109676;28;20050;-53
2023/08/08 06:46:00;;;;;;;0.10;0.10;;;;;;;;;;5120596;27;20651;-52
2023/08/08 06:48:26;;;;;;;0.10;0.10;;;;;;;;;;5108259;28;20047;-50
2023/08/08 06:50:51;;;;;;;0.10;0.10;;;;;;;;;;5094357;27;20054;-57
2023/08/08 06:53:17;;;;;;;0.10;0.10;;;;;;;;;;5101802;27;20043;-53
2023/08/08 06:55:43;;;;;;;0.20;0.20;;;;;;;;;;5104680;27;20117;-58
2023/08/08 06:58:08;;;;;;;0.10;0.10;;;;;;;;;;5099197;27;20046;-56
2023/08/08 07:00:34;;;;;;;0.20;0.20;;;;;;;;;;5091416;27;20154;-52
2023/08/08 07:02:59;;;;;;;0.10;0.10;;;;;;;;;;5096614;27;20058;-60
2023/08/08 07:05:27;;;;;;;0.10;0.10;;;;;;;;;;5093744;27;20054;-49
2023/08/08 07:07:53;;;;;;;0.10;0.10;;;;;;;;;;5089525;27;20047;-47
2023/08/08 07:10:19;;;;;;;0.20;0.20;;;;;;;;;;5089238;27;20043;-53
2023/08/08 07:12:45;;;;;;;0.20;0.20;;;;;;;;;;5103754;28;20082;-51
2023/08/08 07:15:11;;;;;;;0.10;0.10;;;;;;;;;;5095395;27;20099;-53
2023/08/08 07:17:36;;;;;;;0.10;0.10;;;;;;;;;;5096406;27;20055;-50
2023/08/08 07:20:02;;;;;;;0.20;0.20;;;;;;;;;;5111563;27;20142;-50
2023/08/08 07:22:28;;;;;;;0.20;0.20;;;;;;;;;;5111935;28;20031;-50
2023/08/08 07:24:53;;;;;;;0.10;0.10;;;;;;;;;;5106373;27;21524;-51
2023/08/08 07:27:19;;;;;;;0.10;0.10;;;;;;;;;;5101033;28;20067;-49
2023/08/08 07:29:44;;;;;;;0.15;0.15;;;;;;;;;;5104288;27;20109;-52
2023/08/08 07:32:10;;;;;;;0.20;0.20;;;;;;;;;;5109717;27;20047;-49
2023/08/08 07:34:36;;;;;;;0.10;0.10;;;;;;;;;;5106816;27;20069;-48
2023/08/08 07:37:02;;;;;;;0.10;0.10;;;;;;;;;;5106108;27;20062;-48
2023/08/08 07:39:28;;;;;;;0.10;0.10;;;;;;;;;;5113848;27;20157;-50
2023/08/08 07:41:53;;;;;;;0.10;0.10;;;;;;;;;;5099435;27;20491;-48
2023/08/08 07:44:19;;;;;;;0.10;0.10;;;;;;;;;;5105410;27;20058;-48
2023/08/08 07:46:45;;;;;;;0.13;0.13;;;;;;;;;;5112255;27;20043;-49
2023/08/08 07:49:10;;;;;;;0.10;0.10;;;;;;;;;;5110396;27;20088;-52
2023/08/08 07:51:36;;;;;;;0.17;0.17;;;;;;;;;;5100751;27;20047;-51
2023/08/08 07:54:02;;;;;;;0.10;0.10;;;;;;;;;;5093916;27;20072;-48
2023/08/08 07:56:28;;;;;;;0.10;0.10;;;;;;;;;;5108847;27;20160;-48
2023/08/08 07:58:53;;;;;;;0.20;0.20;;;;;;;;;;5101315;27;20054;-48
2023/08/08 08:01:19;;;;;;;0.10;0.10;;;;;;;;;;5105448;27;20638;-52
2023/08/08 08:03:45;;;;;;;0.10;0.10;;;;;;;;;;5105164;28;20388;-49
2023/08/08 08:06:11;;;;;;;0.20;0.20;;;;;;;;;;5098048;27;20078;-49
2023/08/08 08:08:37;;;;;;;0.10;0.10;;;;;;;;;;5098869;27;20047;-49
2023/08/08 08:11:03;;;;;;;0.20;0.20;;;;;;;;;;5099532;27;20163;-49
2023/08/08 08:13:28;;;;;;;0.20;0.20;;;;;;;;;;5104679;27;20554;-51
2023/08/08 08:15:54;;;;;;;0.20;0.20;;;;;;;;;;5113384;27;20461;-51
2023/08/08 08:18:20;;;;;;;0.10;0.10;;;;;;;;;;5110250;28;20547;-50
2023/08/08 08:20:46;;;;;;;0.20;0.20;;;;;;;;;;5106198;28;20472;-54
2023/08/08 08:23:12;;;;;;;0.30;0.30;;;;;;;;;;5111686;28;20122;-50
2023/08/08 08:25:37;;;;;;;0.20;0.20;;;;;;;;;;5110736;28;20781;-48
2023/08/08 08:28:03;;;;;;;0.10;0.10;;;;;;;;;;5107214;27;20483;-51
2023/08/08 08:30:28;;;;;;;0.20;0.20;;;;;;;;;;5106208;28;20051;-49
2023/08/08 08:32:54;;;;;;;0.20;0.20;;;;;;;;;;5114635;28;20104;-49
2023/08/08 08:35:20;;;;;;;0.10;0.10;;;;;;;;;;5112280;27;20189;-49
2023/08/08 08:37:46;;;;;;;0.10;0.10;;;;;;;;;;5107492;28;20128;-50
2023/08/08 08:40:11;;;;;;;0.20;0.20;;;;;;;;;;5101498;27;20043;-49
2023/08/08 08:42:38;;;;;;;0.10;0.10;;;;;;;;;;5100054;27;20185;-49
2023/08/08 08:45:05;;;;;;;0.10;0.10;;;;;;;;;;5098872;27;20043;-48
2023/08/08 08:47:31;;;;;;;0.10;0.10;;;;;;;;;;5105635;27;20047;-47
2023/08/08 08:49:57;;;;;;;0.20;0.20;;;;;;;;;;5105259;27;20502;-50
2023/08/08 08:52:23;;;;;;;0.10;0.10;;;;;;;;;;5110353;28;20047;-49
2023/08/08 08:54:50;;;;;;;0.20;0.20;;;;;;;;;;5110182;27;20043;-48
2023/08/08 08:57:15;;;;;;;0.10;0.10;;;;;;;;;;5112128;27;20063;-49
2023/08/08 08:59:41;;;;;;;0.10;0.10;;;;;;;;;;5101072;27;20076;-48
2023/08/08 09:02:07;;;;;;;0.20;0.20;;;;;;;;;;5104895;27;20058;-51
2023/08/08 09:04:34;;;;;;;0.20;0.20;;;;;;;;;;5110461;27;20136;-51
2023/08/08 09:07:00;;;;;;;0.20;0.20;;;;;;;;;;5102974;27;20050;-50
2023/08/08 09:09:26;;;;;;;0.10;0.10;;;;;;;;;;5113967;28;20082;-48
2023/08/08 09:11:54;;;;;;;0.20;0.20;;;;;;;;;;5103573;27;20389;-48
2023/08/08 09:14:22;;;;;;;0.10;0.10;;;;;;;;;;5107401;27;20043;-49
2023/08/08 09:16:48;;;;;;;0.10;0.10;;;;;;;;;;5109248;27;20044;-51
2023/08/08 09:19:14;;;;;;;0.20;0.20;;;;;;;;;;5113560;27;20046;-52
2023/08/08 09:21:40;;;;;;;0.10;0.10;;;;;;;;;;5106022;27;20097;-48
2023/08/08 09:24:06;;;;;;;0.10;0.10;;;;;;;;;;5108244;27;20134;-52
2023/08/08 09:26:32;;;;;;;0.10;0.10;;;;;;;;;;5111026;27;20043;-50
2023/08/08 09:28:57;;;;;;;0.17;0.17;;;;;;;;;;5110482;27;20035;-47
2023/08/08 09:31:25;;;;;;;0.10;0.10;;;;;;;;;;5103736;27;20043;-47
2023/08/08 09:33:51;;;;;;;0.20;0.20;;;;;;;;;;5111138;27;20124;-49
2023/08/08 09:36:17;;;;;;;0.10;0.10;;;;;;;;;;5102715;27;20050;-49
2023/08/08 09:38:43;;;;;;;0.10;0.10;;;;;;;;;;5103225;27;20055;-52
2023/08/08 09:41:08;;;;;;;0.20;0.20;;;;;;;;;;5104831;27;20119;-49
2023/08/08 09:43:34;;;;;;;0.10;0.10;;;;;;;;;;5109785;27;20307;-50
2023/08/08 09:46:00;;;;;;;0.20;0.20;;;;;;;;;;5113826;28;20046;-48
2023/08/08 09:48:32;;;;;;;0.10;0.10;;;;;;;;;;5114087;27;20402;-48
2023/08/08 09:50:59;;;;;;;0.10;0.10;;;;;;;;;;5108240;27;20043;-47
2023/08/08 09:53:26;;;;;;;0.10;0.10;;;;;;;;;;5119725;27;20054;-48
2023/08/08 09:55:54;;;;;;;0.10;0.10;;;;;;;;;;5113435;27;20120;-49
2023/08/08 09:58:19;;;;;;;0.10;0.10;;;;;;;;;;5112008;27;20066;-48
2023/08/08 10:00:45;;;;;;;0.20;0.20;;;;;;;;;;5115565;28;20549;-51
2023/08/08 10:03:11;;;;;;;0.20;0.20;;;;;;;;;;5112080;28;21111;-52
2023/08/08 10:05:38;;;;;;;0.20;0.20;;;;;;;;;;5111750;28;20098;-49
2023/08/08 10:08:04;;;;;;;0.30;0.30;;;;;;;;;;5109785;27;20047;-50
2023/08/08 10:10:30;;;;;;;0.20;0.20;;;;;;;;;;5110019;28;20066;-47
2023/08/08 10:12:56;;;;;;;0.10;0.10;;;;;;;;;;5110478;28;20057;-52
2023/08/08 10:15:25;;;;;;;0.10;0.10;;;;;;;;;;5115115;27;20049;-51
2023/08/08 10:17:52;;;;;;;0.13;0.13;;;;;;;;;;5113292;28;20047;-50
2023/08/08 10:20:18;;;;;;;0.10;0.10;;;;;;;;;;5115491;27;20135;-49
2023/08/08 10:22:46;;;;;;;0.20;0.20;;;;;;;;;;5120003;27;20086;-49
2023/08/08 10:25:19;;;;;;;0.10;0.10;;;;;;;;;;5112882;27;20069;-51
2023/08/08 10:27:45;;;;;;;0.17;0.17;;;;;;;;;;5101556;27;20043;-52
2023/08/08 10:30:12;;;;;;;0.20;0.20;;;;;;;;;;5114733;27;20483;-51
2023/08/08 10:32:39;;;;;;;0.20;0.20;;;;;;;;;;5116185;28;20039;-49
2023/08/08 10:35:05;;;;;;;0.20;0.20;;;;;;;;;;5122660;27;20054;-59
2023/08/08 10:37:31;;;;;;;0.10;0.10;;;;;;;;;;5112387;27;20046;-58
2023/08/08 10:39:58;;;;;;;0.10;0.10;;;;;;;;;;5113460;27;20059;-50
2023/08/08 10:42:24;;;;;;;0.20;0.20;;;;;;;;;;5111182;27;20057;-47
2023/08/08 10:44:55;;;;;;;0.20;0.20;;;;;;;;;;5099222;27;20051;-48
2023/08/08 10:47:36;;;;;;;0.20;0.20;;;;;;;;;;5111384;27;20047;-48
2023/08/08 10:50:06;;;;;;;0.20;0.20;;;;;;;;;;5109870;27;20051;-53
2023/08/08 10:52:35;;;;;;;0.10;0.10;;;;;;;;;;5101157;27;20047;-49
2023/08/08 10:55:01;;;;;;;0.20;0.20;;;;;;;;;;5112593;27;20058;-50
2023/08/08 10:57:27;;;;;;;0.10;0.10;;;;;;;;;;5099849;28;20346;-49
2023/08/08 10:59:53;;;;;;;0.20;0.20;;;;;;;;;;5104741;27;20051;-51
2023/08/08 11:02:19;;;;;;;0.10;0.10;;;;;;;;;;5110986;28;20035;-47
2023/08/08 11:04:45;;;;;;;0.20;0.20;;;;;;;;;;5105702;27;22382;-47
2023/08/08 11:07:11;;;;;;;0.20;0.20;;;;;;;;;;5110012;28;20043;-47
2023/08/08 11:09:37;;;;;;;0.20;0.20;;;;;;;;;;5111662;27;20501;-47
2023/08/08 11:12:03;;;;;;;0.20;0.20;;;;;;;;;;5108532;27;20040;-47
2023/08/08 11:14:29;;;;;;;0.10;0.10;;;;;;;;;;5106407;27;20040;-47
2023/08/08 11:16:55;;;;;;;0.20;0.20;;;;;;;;;;5112861;27;20039;-55
2023/08/08 11:19:21;;;;;;;0.20;0.20;;;;;;;;;;5108841;27;20066;-47
2023/08/08 11:21:47;;;;;;;0.10;0.10;;;;;;;;;;5109088;27;20077;-49
2023/08/08 11:24:13;;;;;;;0.15;0.15;;;;;;;;;;5105657;27;20078;-47
2023/08/08 11:26:39;;;;;;;0.10;0.10;;;;;;;;;;5107852;27;20347;-46
2023/08/08 11:29:05;;;;;;;0.20;0.20;;;;;;;;;;5111205;27;20046;-47
2023/08/08 11:31:31;;;;;;;0.10;0.10;;;;;;;;;;5102171;27;20114;-47
2023/08/08 11:33:59;;;;;;;0.10;0.10;;;;;;;;;;5104655;27;20071;-50
2023/08/08 11:36:24;;;;;;;0.15;0.15;;;;;;;;;;5109143;28;20713;-49
2023/08/08 11:38:50;;;;;;;0.10;0.10;;;;;;;;;;5109542;27;20559;-52
2023/08/08 11:41:19;;;;;;;0.20;0.20;;;;;;;;;;5109143;28;20112;-56
2023/08/08 11:43:46;;;;;;;0.20;0.20;;;;;;;;;;5114063;27;20503;-48
2023/08/08 11:46:12;;;;;;;0.10;0.10;;;;;;;;;;5110410;27;20245;-48
2023/08/08 11:48:38;;;;;;;0.10;0.10;;;;;;;;;;5111599;27;20624;-50
2023/08/08 11:51:04;;;;;;;0.20;0.20;;;;;;;;;;5084711;27;20228;-48
2023/08/08 11:53:30;;;;;;;0.10;0.10;;;;;;;;;;5104464;27;20050;-49
2023/08/08 11:55:57;;;;;;;0.10;0.10;;;;;;;;;;5106389;27;20134;-50
2023/08/08 11:58:23;;;;;;;0.10;0.10;;;;;;;;;;5108885;27;20078;-47
2023/08/08 12:00:50;;;;;;;0.10;0.10;;;;;;;;;;5109198;27;20203;-48
2023/08/08 12:03:18;;;;;;;0.20;0.20;;;;;;;;;;5113120;28;20138;-47
2023/08/08 12:05:45;;;;;;;0.10;0.10;;;;;;;;;;5113413;28;20051;-52
2023/08/08 12:08:10;;;;;;;0.15;0.15;;;;;;;;;;5117878;28;20279;-49
2023/08/08 12:10:36;;;;;;;0.10;0.10;;;;;;;;;;5118128;28;20104;-48
2023/08/08 12:13:02;;;;;;;0.22;0.20;;;;;;;;;;5115419;27;20202;-48
2023/08/08 12:15:29;;;;;;;0.20;0.20;;;;;;;;;;5116609;28;20440;-52
2023/08/08 12:17:55;;;;;;;0.10;0.10;;;;;;;;;;5116766;28;20051;-48
2023/08/08 12:20:20;;;;;;;0.10;0.10;;;;;;;;;;5117930;28;20463;-53
2023/08/08 12:22:47;;;;;;;0.10;0.10;;;;;;;;;;5113481;27;20043;-50
2023/08/08 12:25:13;;;;;;;0.10;0.10;;;;;;;;;;5112015;27;20079;-52
2023/08/08 12:27:38;;;;;;;0.10;0.10;;;;;;;;;;5114127;27;20761;-50
2023/08/08 12:30:05;;;;;;;0.10;0.10;;;;;;;;;;5117483;27;20049;-49
2023/08/08 12:32:32;;;;;;;0.10;0.10;;;;;;;;;;5115146;27;20478;-49
2023/08/08 12:34:58;;;;;;;0.20;0.20;;;;;;;;;;5120665;27;20214;-56
2023/08/08 12:37:23;;;;;;;0.10;0.10;;;;;;;;;;5120644;28;20047;-56
2023/08/08 12:39:49;;;;;;;0.15;0.15;;;;;;;;;;5118084;28;20332;-54
2023/08/08 12:42:15;;;;;;;0.20;0.20;;;;;;;;;;5113332;28;20527;-55
2023/08/08 12:44:40;;;;;;;0.10;0.10;;;;;;;;;;5110087;28;20062;-56
2023/08/08 12:47:06;;;;;;;0.10;0.10;;;;;;;;;;5109594;27;20055;-54
2023/08/08 12:49:32;;;;;;;0.10;0.10;;;;;;;;;;5116089;28;20054;-50
2023/08/08 12:51:57;;;;;;;0.10;0.10;;;;;;;;;;5117232;27;20135;-52
2023/08/08 12:54:23;;;;;;;0.10;0.10;;;;;;;;;;5113831;28;20050;-50
2023/08/08 12:56:48;;;;;;;0.10;0.10;;;;;;;;;;5114651;28;20243;-49
2023/08/08 12:59:14;;;;;;;0.20;0.20;;;;;;;;;;5117712;28;20039;-47
2023/08/08 13:01:39;;;;;;;0.10;0.10;;;;;;;;;;5123899;27;20276;-55
2023/08/08 13:04:05;;;;;;;0.10;0.10;;;;;;;;;;5122598;28;20031;-49
2023/08/08 13:06:45;;;;;;;0.15;0.15;;;;;;;;;;5124709;28;20055;-47
2023/08/08 13:09:10;;;;;;;0.20;0.20;;;;;;;;;;5124254;28;20074;-49
2023/08/08 13:11:36;;;;;;;0.10;0.10;;;;;;;;;;5125255;28;20516;-48
2023/08/08 13:14:01;;;;;;;0.17;0.17;;;;;;;;;;5125113;28;20397;-47
2023/08/08 13:16:27;;;;;;;0.20;0.20;;;;;;;;;;5126803;28;20043;-51
2023/08/08 13:18:52;;;;;;;0.25;0.25;;;;;;;;;;5125016;28;20075;-52
2023/08/08 13:21:18;;;;;;;0.10;0.10;;;;;;;;;;5123299;28;20151;-47
2023/08/08 13:23:44;;;;;;;0.20;0.20;;;;;;;;;;5126949;28;20647;-50
2023/08/08 13:26:09;;;;;;;0.13;0.13;;;;;;;;;;5110906;27;20136;-52
2023/08/08 13:28:35;;;;;;;0.15;0.15;;;;;;;;;;5127213;27;20204;-51
2023/08/08 13:31:00;;;;;;;0.20;0.20;;;;;;;;;;5124812;28;20081;-51
2023/08/08 13:33:26;;;;;;;0.15;0.15;;;;;;;;;;5127742;27;20138;-50
2023/08/08 13:35:52;;;;;;;0.25;0.25;;;;;;;;;;5127973;28;20137;-51
2023/08/08 13:38:17;;;;;;;0.20;0.20;;;;;;;;;;5126426;28;20319;-47
2023/08/08 13:40:43;;;;;;;0.20;0.20;;;;;;;;;;5123397;28;20484;-48
2023/08/08 13:43:09;;;;;;;0.20;0.20;;;;;;;;;;5125913;27;20086;-50
2023/08/08 13:45:35;;;;;;;0.10;0.10;;;;;;;;;;5126770;27;20058;-48
2023/08/08 13:48:00;;;;;;;0.20;0.20;;;;;;;;;;5122839;28;20301;-49
2023/08/08 13:50:26;;;;;;;0.20;0.20;;;;;;;;;;5125855;28;20062;-55
2023/08/08 13:52:53;;;;;;;0.20;0.20;;;;;;;;;;5126150;28;20040;-55
2023/08/08 13:55:18;;;;;;;0.10;0.10;;;;;;;;;;5128195;28;20051;-56
2023/08/08 13:57:44;;;;;;;0.20;0.20;;;;;;;;;;5127064;28;20126;-53
2023/08/08 14:00:12;;;;;;;0.17;0.17;;;;;;;;;;5124604;27;20325;-51
2023/08/08 14:02:39;;;;;;;0.10;0.10;;;;;;;;;;5126459;27;20200;-50
2023/08/08 14:05:06;;;;;;;0.20;0.20;;;;;;;;;;5111437;27;20100;-54
2023/08/08 14:07:33;;;;;;;0.20;0.20;;;;;;;;;;5127339;28;20043;-51
2023/08/08 14:09:58;;;;;;;0.13;0.13;;;;;;;;;;5127928;28;20076;-50
2023/08/08 14:12:24;;;;;;;0.10;0.10;;;;;;;;;;5126400;27;20514;-52
2023/08/08 14:14:49;;;;;;;0.20;0.20;;;;;;;;;;5125521;28;20457;-54
2023/08/08 14:17:15;;;;;;;0.10;0.10;;;;;;;;;;5127647;28;20039;-53
2023/08/08 14:19:40;;;;;;;0.17;0.17;;;;;;;;;;5127019;27;20043;-50
2023/08/08 14:22:06;;;;;;;0.10;0.10;;;;;;;;;;5126857;28;20051;-52
2023/08/08 14:24:33;;;;;;;0.43;0.28;;;;;;;;;;5125166;28;20081;-53
2023/08/08 14:26:59;;;;;;;0.13;0.13;;;;;;;;;;5126186;28;20054;-52
2023/08/08 14:29:24;;;;;;;0.20;0.20;;;;;;;;;;5126900;28;20511;-48
2023/08/08 14:31:50;;;;;;;0.20;0.20;;;;;;;;;;5126303;28;20043;-53
2023/08/08 14:34:33;;;;;;;0.20;0.20;;;;;;;;;;5123451;28;20047;-48
2023/08/08 14:36:59;;;;;;;0.20;0.20;;;;;;;;;;5125387;27;20526;-50